sensor_id;sensor_type;location;lat;lon;timestamp;P1;durP1;ratioP1;P2;durP2;ratioP2
6513;SDS011;3290;47.716;9.070;2024-03-08T00:00:10;39.17;;;20.80;;
6513;SDS011;3290;47.716;9.070;2024-03-08T00:02:41;41.27;;;19.57;;
6513;SDS011;3290;47.716;9.070;2024-03-08T00:05:07;39.87;;;20.60;;
6513;SDS011;3290;47.716;9.070;2024-03-08T00:07:36;39.67;;;21.17;;
6513;SDS011;3290;47.716;9.070;2024-03-08T00:10:03;38.97;;;20.30;;
6513;SDS011;3290;47.716;9.070;2024-03-08T00:12:29;45.97;;;21.17;;
6513;SDS011;3290;47.716;9.070;2024-03-08T00:14:55;38.43;;;19.77;;
6513;SDS011;3290;47.716;9.070;2024-03-08T00:17:21;45.40;;;20.13;;
6513;SDS011;3290;47.716;9.070;2024-03-08T00:19:50;42.40;;;21.93;;
6513;SDS011;3290;47.716;9.070;2024-03-08T00:22:16;39.67;;;19.90;;
6513;SDS011;3290;47.716;9.070;2024-03-08T00:24:41;46.20;;;21.90;;
6513;SDS011;3290;47.716;9.070;2024-03-08T00:27:07;37.10;;;20.23;;
6513;SDS011;3290;47.716;9.070;2024-03-08T00:29:34;42.23;;;19.83;;
6513;SDS011;3290;47.716;9.070;2024-03-08T00:31:59;38.37;;;20.57;;
6513;SDS011;3290;47.716;9.070;2024-03-08T00:34:25;43.03;;;21.90;;
6513;SDS011;3290;47.716;9.070;2024-03-08T00:36:50;36.23;;;19.53;;
6513;SDS011;3290;47.716;9.070;2024-03-08T00:39:17;40.30;;;21.20;;
6513;SDS011;3290;47.716;9.070;2024-03-08T00:41:44;52.00;;;21.27;;
6513;SDS011;3290;47.716;9.070;2024-03-08T00:44:10;38.60;;;20.17;;
6513;SDS011;3290;47.716;9.070;2024-03-08T00:46:35;39.43;;;21.50;;
6513;SDS011;3290;47.716;9.070;2024-03-08T00:49:01;41.37;;;20.80;;
6513;SDS011;3290;47.716;9.070;2024-03-08T00:51:26;39.57;;;20.20;;
6513;SDS011;3290;47.716;9.070;2024-03-08T00:53:51;42.00;;;21.70;;
6513;SDS011;3290;47.716;9.070;2024-03-08T00:56:17;42.57;;;20.80;;
6513;SDS011;3290;47.716;9.070;2024-03-08T00:58:42;41.73;;;20.83;;
6513;SDS011;3290;47.716;9.070;2024-03-08T01:01:08;36.37;;;19.20;;
6513;SDS011;3290;47.716;9.070;2024-03-08T01:03:34;37.30;;;19.00;;
6513;SDS011;3290;47.716;9.070;2024-03-08T01:06:01;45.17;;;19.33;;
6513;SDS011;3290;47.716;9.070;2024-03-08T01:08:26;42.17;;;20.43;;
6513;SDS011;3290;47.716;9.070;2024-03-08T01:10:52;32.97;;;18.00;;
6513;SDS011;3290;47.716;9.070;2024-03-08T01:13:18;38.70;;;19.43;;
6513;SDS011;3290;47.716;9.070;2024-03-08T01:15:44;38.97;;;19.20;;
6513;SDS011;3290;47.716;9.070;2024-03-08T01:18:09;39.20;;;20.30;;
6513;SDS011;3290;47.716;9.070;2024-03-08T01:20:35;34.47;;;18.10;;
6513;SDS011;3290;47.716;9.070;2024-03-08T01:23:01;39.77;;;20.93;;
6513;SDS011;3290;47.716;9.070;2024-03-08T01:25:32;34.60;;;17.60;;
6513;SDS011;3290;47.716;9.070;2024-03-08T01:27:58;39.70;;;19.53;;
6513;SDS011;3290;47.716;9.070;2024-03-08T01:30:23;36.43;;;17.40;;
6513;SDS011;3290;47.716;9.070;2024-03-08T01:32:48;34.00;;;19.03;;
6513;SDS011;3290;47.716;9.070;2024-03-08T01:35:14;36.17;;;18.10;;
6513;SDS011;3290;47.716;9.070;2024-03-08T01:37:39;34.17;;;18.27;;
6513;SDS011;3290;47.716;9.070;2024-03-08T01:40:05;35.27;;;18.07;;
6513;SDS011;3290;47.716;9.070;2024-03-08T01:42:32;35.83;;;17.40;;
6513;SDS011;3290;47.716;9.070;2024-03-08T01:44:57;38.10;;;19.03;;
6513;SDS011;3290;47.716;9.070;2024-03-08T01:47:22;41.20;;;19.00;;
6513;SDS011;3290;47.716;9.070;2024-03-08T01:49:49;37.07;;;17.43;;
6513;SDS011;3290;47.716;9.070;2024-03-08T01:52:15;43.87;;;19.90;;
6513;SDS011;3290;47.716;9.070;2024-03-08T01:54:41;37.63;;;17.83;;
6513;SDS011;3290;47.716;9.070;2024-03-08T01:57:07;34.10;;;16.80;;
6513;SDS011;3290;47.716;9.070;2024-03-08T01:59:32;37.00;;;18.40;;
6513;SDS011;3290;47.716;9.070;2024-03-08T02:02:00;37.13;;;19.70;;
6513;SDS011;3290;47.716;9.070;2024-03-08T02:04:28;35.50;;;17.50;;
6513;SDS011;3290;47.716;9.070;2024-03-08T02:06:55;43.27;;;19.80;;
6513;SDS011;3290;47.716;9.070;2024-03-08T02:09:23;33.50;;;18.60;;
6513;SDS011;3290;47.716;9.070;2024-03-08T02:11:49;36.20;;;18.97;;
6513;SDS011;3290;47.716;9.070;2024-03-08T02:14:15;35.40;;;17.80;;
6513;SDS011;3290;47.716;9.070;2024-03-08T02:16:41;36.47;;;18.53;;
6513;SDS011;3290;47.716;9.070;2024-03-08T02:19:07;33.73;;;18.00;;
6513;SDS011;3290;47.716;9.070;2024-03-08T02:21:34;35.77;;;19.30;;
6513;SDS011;3290;47.716;9.070;2024-03-08T02:24:01;36.20;;;17.77;;
6513;SDS011;3290;47.716;9.070;2024-03-08T02:26:26;35.53;;;19.13;;
6513;SDS011;3290;47.716;9.070;2024-03-08T02:28:52;36.90;;;19.17;;
6513;SDS011;3290;47.716;9.070;2024-03-08T02:31:17;42.70;;;19.13;;
6513;SDS011;3290;47.716;9.070;2024-03-08T02:33:42;42.77;;;19.43;;
6513;SDS011;3290;47.716;9.070;2024-03-08T02:36:08;35.17;;;18.97;;
6513;SDS011;3290;47.716;9.070;2024-03-08T02:38:33;37.63;;;19.10;;
6513;SDS011;3290;47.716;9.070;2024-03-08T02:40:59;35.10;;;17.40;;
6513;SDS011;3290;47.716;9.070;2024-03-08T02:43:24;50.17;;;18.23;;
6513;SDS011;3290;47.716;9.070;2024-03-08T02:45:50;34.67;;;17.67;;
6513;SDS011;3290;47.716;9.070;2024-03-08T02:48:17;41.93;;;18.70;;
6513;SDS011;3290;47.716;9.070;2024-03-08T02:50:43;33.40;;;16.97;;
6513;SDS011;3290;47.716;9.070;2024-03-08T02:53:09;42.47;;;18.30;;
6513;SDS011;3290;47.716;9.070;2024-03-08T02:55:35;37.80;;;17.77;;
6513;SDS011;3290;47.716;9.070;2024-03-08T02:58:01;30.67;;;16.00;;
6513;SDS011;3290;47.716;9.070;2024-03-08T03:00:29;37.20;;;17.70;;
6513;SDS011;3290;47.716;9.070;2024-03-08T03:02:58;31.63;;;17.47;;
6513;SDS011;3290;47.716;9.070;2024-03-08T03:05:24;32.07;;;17.23;;
6513;SDS011;3290;47.716;9.070;2024-03-08T03:07:49;39.73;;;17.37;;
6513;SDS011;3290;47.716;9.070;2024-03-08T03:10:19;40.33;;;17.27;;
6513;SDS011;3290;47.716;9.070;2024-03-08T03:12:46;30.90;;;16.80;;
6513;SDS011;3290;47.716;9.070;2024-03-08T03:15:13;31.03;;;16.93;;
6513;SDS011;3290;47.716;9.070;2024-03-08T03:17:39;34.37;;;18.77;;
6513;SDS011;3290;47.716;9.070;2024-03-08T03:20:06;30.17;;;16.07;;
6513;SDS011;3290;47.716;9.070;2024-03-08T03:22:38;35.20;;;16.90;;
6513;SDS011;3290;47.716;9.070;2024-03-08T03:25:03;32.10;;;16.67;;
6513;SDS011;3290;47.716;9.070;2024-03-08T03:27:29;35.27;;;17.00;;
6513;SDS011;3290;47.716;9.070;2024-03-08T03:29:55;33.10;;;17.87;;
6513;SDS011;3290;47.716;9.070;2024-03-08T03:32:22;32.27;;;16.70;;
6513;SDS011;3290;47.716;9.070;2024-03-08T03:34:48;33.10;;;17.00;;
6513;SDS011;3290;47.716;9.070;2024-03-08T03:37:17;31.53;;;16.53;;
6513;SDS011;3290;47.716;9.070;2024-03-08T03:39:44;32.10;;;18.20;;
6513;SDS011;3290;47.716;9.070;2024-03-08T03:42:18;36.67;;;17.70;;
6513;SDS011;3290;47.716;9.070;2024-03-08T03:44:47;32.17;;;16.37;;
6513;SDS011;3290;47.716;9.070;2024-03-08T03:47:13;35.27;;;16.43;;
6513;SDS011;3290;47.716;9.070;2024-03-08T03:49:40;33.07;;;17.47;;
6513;SDS011;3290;47.716;9.070;2024-03-08T03:52:05;32.23;;;17.67;;
6513;SDS011;3290;47.716;9.070;2024-03-08T03:54:31;34.00;;;16.60;;
6513;SDS011;3290;47.716;9.070;2024-03-08T03:56:58;33.37;;;17.87;;
6513;SDS011;3290;47.716;9.070;2024-03-08T03:59:23;32.03;;;17.50;;
6513;SDS011;3290;47.716;9.070;2024-03-08T04:01:49;33.00;;;17.13;;
6513;SDS011;3290;47.716;9.070;2024-03-08T04:04:14;29.87;;;16.00;;
6513;SDS011;3290;47.716;9.070;2024-03-08T04:06:40;31.50;;;16.97;;
6513;SDS011;3290;47.716;9.070;2024-03-08T04:09:06;35.13;;;18.50;;
6513;SDS011;3290;47.716;9.070;2024-03-08T04:11:31;35.23;;;18.13;;
6513;SDS011;3290;47.716;9.070;2024-03-08T04:13:57;35.23;;;17.30;;
6513;SDS011;3290;47.716;9.070;2024-03-08T04:16:22;34.33;;;17.40;;
6513;SDS011;3290;47.716;9.070;2024-03-08T04:18:48;35.70;;;17.60;;
6513;SDS011;3290;47.716;9.070;2024-03-08T04:21:14;33.00;;;17.00;;
6513;SDS011;3290;47.716;9.070;2024-03-08T04:23:39;31.70;;;16.97;;
6513;SDS011;3290;47.716;9.070;2024-03-08T04:26:05;38.23;;;20.40;;
6513;SDS011;3290;47.716;9.070;2024-03-08T04:28:31;33.70;;;17.13;;
6513;SDS011;3290;47.716;9.070;2024-03-08T04:30:57;33.70;;;17.60;;
6513;SDS011;3290;47.716;9.070;2024-03-08T04:33:22;31.23;;;17.37;;
6513;SDS011;3290;47.716;9.070;2024-03-08T04:35:48;36.53;;;19.17;;
6513;SDS011;3290;47.716;9.070;2024-03-08T04:38:14;32.83;;;18.63;;
6513;SDS011;3290;47.716;9.070;2024-03-08T04:40:40;33.10;;;18.40;;
6513;SDS011;3290;47.716;9.070;2024-03-08T04:43:06;41.30;;;18.57;;
6513;SDS011;3290;47.716;9.070;2024-03-08T04:45:33;41.57;;;18.60;;
6513;SDS011;3290;47.716;9.070;2024-03-08T04:47:58;43.00;;;19.87;;
6513;SDS011;3290;47.716;9.070;2024-03-08T04:50:24;36.47;;;18.20;;
6513;SDS011;3290;47.716;9.070;2024-03-08T04:52:49;38.70;;;19.10;;
6513;SDS011;3290;47.716;9.070;2024-03-08T04:55:14;33.50;;;17.27;;
6513;SDS011;3290;47.716;9.070;2024-03-08T04:57:40;39.73;;;18.90;;
6513;SDS011;3290;47.716;9.070;2024-03-08T05:00:07;33.03;;;16.87;;
6513;SDS011;3290;47.716;9.070;2024-03-08T05:02:36;40.10;;;19.60;;
6513;SDS011;3290;47.716;9.070;2024-03-08T05:05:04;33.50;;;18.70;;
6513;SDS011;3290;47.716;9.070;2024-03-08T05:07:31;36.10;;;18.43;;
6513;SDS011;3290;47.716;9.070;2024-03-08T05:09:57;42.83;;;19.80;;
6513;SDS011;3290;47.716;9.070;2024-03-08T05:12:23;39.50;;;19.63;;
6513;SDS011;3290;47.716;9.070;2024-03-08T05:14:48;34.80;;;17.90;;
6513;SDS011;3290;47.716;9.070;2024-03-08T05:17:14;35.70;;;19.40;;
6513;SDS011;3290;47.716;9.070;2024-03-08T05:19:41;38.70;;;19.33;;
6513;SDS011;3290;47.716;9.070;2024-03-08T05:22:06;35.87;;;19.83;;
6513;SDS011;3290;47.716;9.070;2024-03-08T05:24:32;36.07;;;18.20;;
6513;SDS011;3290;47.716;9.070;2024-03-08T05:26:58;36.77;;;19.83;;
6513;SDS011;3290;47.716;9.070;2024-03-08T05:29:25;41.03;;;20.30;;
6513;SDS011;3290;47.716;9.070;2024-03-08T05:31:51;39.40;;;19.47;;
6513;SDS011;3290;47.716;9.070;2024-03-08T05:34:17;42.10;;;19.70;;
6513;SDS011;3290;47.716;9.070;2024-03-08T05:36:44;41.53;;;20.90;;
6513;SDS011;3290;47.716;9.070;2024-03-08T05:39:11;39.80;;;20.87;;
6513;SDS011;3290;47.716;9.070;2024-03-08T05:41:39;36.13;;;18.43;;
6513;SDS011;3290;47.716;9.070;2024-03-08T05:44:05;35.03;;;19.70;;
6513;SDS011;3290;47.716;9.070;2024-03-08T05:46:30;38.47;;;19.90;;
6513;SDS011;3290;47.716;9.070;2024-03-08T05:48:56;42.63;;;20.37;;
6513;SDS011;3290;47.716;9.070;2024-03-08T05:51:23;38.43;;;18.90;;
6513;SDS011;3290;47.716;9.070;2024-03-08T05:53:51;40.30;;;21.53;;
6513;SDS011;3290;47.716;9.070;2024-03-08T05:56:18;38.10;;;19.80;;
6513;SDS011;3290;47.716;9.070;2024-03-08T05:58:43;41.70;;;19.23;;
6513;SDS011;3290;47.716;9.070;2024-03-08T06:01:09;38.67;;;20.13;;
6513;SDS011;3290;47.716;9.070;2024-03-08T06:03:37;38.90;;;19.27;;
6513;SDS011;3290;47.716;9.070;2024-03-08T06:06:10;41.30;;;20.03;;
6513;SDS011;3290;47.716;9.070;2024-03-08T06:08:38;37.13;;;19.90;;
6513;SDS011;3290;47.716;9.070;2024-03-08T06:11:04;39.83;;;20.00;;
6513;SDS011;3290;47.716;9.070;2024-03-08T06:13:30;36.80;;;18.97;;
6513;SDS011;3290;47.716;9.070;2024-03-08T06:15:56;37.47;;;19.63;;
6513;SDS011;3290;47.716;9.070;2024-03-08T06:18:22;40.40;;;20.03;;
6513;SDS011;3290;47.716;9.070;2024-03-08T06:20:47;44.17;;;19.97;;
6513;SDS011;3290;47.716;9.070;2024-03-08T06:23:12;40.83;;;19.13;;
6513;SDS011;3290;47.716;9.070;2024-03-08T06:25:42;40.57;;;19.03;;
6513;SDS011;3290;47.716;9.070;2024-03-08T06:28:08;38.37;;;19.70;;
6513;SDS011;3290;47.716;9.070;2024-03-08T06:30:34;52.00;;;21.90;;
6513;SDS011;3290;47.716;9.070;2024-03-08T06:32:59;38.10;;;18.20;;
6513;SDS011;3290;47.716;9.070;2024-03-08T06:35:25;38.63;;;20.43;;
6513;SDS011;3290;47.716;9.070;2024-03-08T06:37:50;41.03;;;21.13;;
6513;SDS011;3290;47.716;9.070;2024-03-08T06:40:15;42.50;;;20.90;;
6513;SDS011;3290;47.716;9.070;2024-03-08T06:42:41;38.00;;;19.33;;
6513;SDS011;3290;47.716;9.070;2024-03-08T06:45:06;55.17;;;20.30;;
6513;SDS011;3290;47.716;9.070;2024-03-08T06:47:34;44.50;;;21.90;;
6513;SDS011;3290;47.716;9.070;2024-03-08T06:49:59;86.70;;;34.87;;
6513;SDS011;3290;47.716;9.070;2024-03-08T06:52:25;67.23;;;26.73;;
6513;SDS011;3290;47.716;9.070;2024-03-08T06:54:50;47.60;;;21.60;;
6513;SDS011;3290;47.716;9.070;2024-03-08T06:57:17;40.63;;;19.50;;
6513;SDS011;3290;47.716;9.070;2024-03-08T06:59:43;92.43;;;39.70;;
6513;SDS011;3290;47.716;9.070;2024-03-08T07:02:09;54.50;;;24.80;;
6513;SDS011;3290;47.716;9.070;2024-03-08T07:04:35;43.13;;;22.10;;
6513;SDS011;3290;47.716;9.070;2024-03-08T07:07:03;45.27;;;23.37;;
6513;SDS011;3290;47.716;9.070;2024-03-08T07:09:29;39.20;;;20.47;;
6513;SDS011;3290;47.716;9.070;2024-03-08T07:11:54;38.57;;;19.57;;
6513;SDS011;3290;47.716;9.070;2024-03-08T07:14:23;37.67;;;20.27;;
6513;SDS011;3290;47.716;9.070;2024-03-08T07:16:49;37.27;;;20.03;;
6513;SDS011;3290;47.716;9.070;2024-03-08T07:19:15;38.60;;;18.87;;
6513;SDS011;3290;47.716;9.070;2024-03-08T07:21:41;45.80;;;19.70;;
6513;SDS011;3290;47.716;9.070;2024-03-08T07:24:07;39.37;;;20.90;;
6513;SDS011;3290;47.716;9.070;2024-03-08T07:26:42;49.83;;;21.70;;
6513;SDS011;3290;47.716;9.070;2024-03-08T07:29:07;37.00;;;19.47;;
6513;SDS011;3290;47.716;9.070;2024-03-08T07:31:33;35.23;;;18.27;;
6513;SDS011;3290;47.716;9.070;2024-03-08T07:34:20;43.00;;;19.57;;
6513;SDS011;3290;47.716;9.070;2024-03-08T07:36:46;43.30;;;18.80;;
6513;SDS011;3290;47.716;9.070;2024-03-08T07:39:12;38.23;;;19.37;;
6513;SDS011;3290;47.716;9.070;2024-03-08T07:41:38;37.07;;;19.40;;
6513;SDS011;3290;47.716;9.070;2024-03-08T07:44:07;41.47;;;19.63;;
6513;SDS011;3290;47.716;9.070;2024-03-08T07:46:33;36.20;;;18.67;;
6513;SDS011;3290;47.716;9.070;2024-03-08T07:49:02;36.77;;;18.93;;
6513;SDS011;3290;47.716;9.070;2024-03-08T07:51:28;32.30;;;17.77;;
6513;SDS011;3290;47.716;9.070;2024-03-08T07:53:53;37.67;;;18.30;;
6513;SDS011;3290;47.716;9.070;2024-03-08T07:56:20;38.27;;;17.67;;
6513;SDS011;3290;47.716;9.070;2024-03-08T07:58:46;36.93;;;18.77;;
6513;SDS011;3290;47.716;9.070;2024-03-08T08:01:16;38.27;;;19.43;;
6513;SDS011;3290;47.716;9.070;2024-03-08T08:03:45;41.40;;;18.87;;
6513;SDS011;3290;47.716;9.070;2024-03-08T08:06:10;37.70;;;18.20;;
6513;SDS011;3290;47.716;9.070;2024-03-08T08:08:43;39.00;;;20.50;;
6513;SDS011;3290;47.716;9.070;2024-03-08T08:11:08;36.80;;;19.07;;
6513;SDS011;3290;47.716;9.070;2024-03-08T08:13:34;39.03;;;19.87;;
6513;SDS011;3290;47.716;9.070;2024-03-08T08:16:01;36.27;;;18.43;;
6513;SDS011;3290;47.716;9.070;2024-03-08T08:18:27;37.73;;;19.97;;
6513;SDS011;3290;47.716;9.070;2024-03-08T08:20:54;35.63;;;19.87;;
6513;SDS011;3290;47.716;9.070;2024-03-08T08:23:20;40.33;;;18.33;;
6513;SDS011;3290;47.716;9.070;2024-03-08T08:25:45;39.33;;;20.30;;
6513;SDS011;3290;47.716;9.070;2024-03-08T08:28:11;36.70;;;19.30;;
6513;SDS011;3290;47.716;9.070;2024-03-08T08:30:37;37.77;;;18.90;;
6513;SDS011;3290;47.716;9.070;2024-03-08T08:33:03;38.37;;;19.47;;
6513;SDS011;3290;47.716;9.070;2024-03-08T08:35:30;45.10;;;19.00;;
6513;SDS011;3290;47.716;9.070;2024-03-08T08:37:56;36.27;;;19.43;;
6513;SDS011;3290;47.716;9.070;2024-03-08T08:40:23;33.00;;;17.03;;
6513;SDS011;3290;47.716;9.070;2024-03-08T08:42:50;36.97;;;18.30;;
6513;SDS011;3290;47.716;9.070;2024-03-08T08:45:17;40.20;;;17.97;;
6513;SDS011;3290;47.716;9.070;2024-03-08T08:47:46;51.80;;;20.67;;
6513;SDS011;3290;47.716;9.070;2024-03-08T08:50:11;36.80;;;15.53;;
6513;SDS011;3290;47.716;9.070;2024-03-08T08:52:38;54.50;;;19.50;;
6513;SDS011;3290;47.716;9.070;2024-03-08T08:55:04;30.63;;;16.13;;
6513;SDS011;3290;47.716;9.070;2024-03-08T08:57:31;38.97;;;17.07;;
6513;SDS011;3290;47.716;9.070;2024-03-08T08:59:58;34.33;;;16.13;;
6513;SDS011;3290;47.716;9.070;2024-03-08T09:02:23;37.23;;;16.00;;
6513;SDS011;3290;47.716;9.070;2024-03-08T09:04:50;31.87;;;16.43;;
6513;SDS011;3290;47.716;9.070;2024-03-08T09:07:16;31.43;;;16.00;;
6513;SDS011;3290;47.716;9.070;2024-03-08T09:09:44;32.37;;;16.13;;
6513;SDS011;3290;47.716;9.070;2024-03-08T09:12:09;34.60;;;17.10;;
6513;SDS011;3290;47.716;9.070;2024-03-08T09:14:38;44.20;;;17.00;;
6513;SDS011;3290;47.716;9.070;2024-03-08T09:17:07;30.57;;;17.67;;
6513;SDS011;3290;47.716;9.070;2024-03-08T09:19:33;36.27;;;17.27;;
6513;SDS011;3290;47.716;9.070;2024-03-08T09:22:02;30.97;;;15.13;;
6513;SDS011;3290;47.716;9.070;2024-03-08T09:24:29;29.87;;;15.93;;
6513;SDS011;3290;47.716;9.070;2024-03-08T09:26:56;27.90;;;15.10;;
6513;SDS011;3290;47.716;9.070;2024-03-08T09:29:21;31.90;;;15.47;;
6513;SDS011;3290;47.716;9.070;2024-03-08T09:31:46;32.67;;;15.10;;
6513;SDS011;3290;47.716;9.070;2024-03-08T09:34:12;32.47;;;16.40;;
6513;SDS011;3290;47.716;9.070;2024-03-08T09:36:37;31.27;;;15.90;;
6513;SDS011;3290;47.716;9.070;2024-03-08T09:39:02;29.93;;;16.03;;
6513;SDS011;3290;47.716;9.070;2024-03-08T09:41:28;30.60;;;15.07;;
6513;SDS011;3290;47.716;9.070;2024-03-08T09:43:55;29.57;;;15.10;;
6513;SDS011;3290;47.716;9.070;2024-03-08T09:46:22;27.10;;;14.53;;
6513;SDS011;3290;47.716;9.070;2024-03-08T09:48:48;29.37;;;16.57;;
6513;SDS011;3290;47.716;9.070;2024-03-08T09:51:13;24.83;;;13.93;;
6513;SDS011;3290;47.716;9.070;2024-03-08T09:53:40;29.40;;;13.83;;
6513;SDS011;3290;47.716;9.070;2024-03-08T09:56:07;24.20;;;12.90;;
6513;SDS011;3290;47.716;9.070;2024-03-08T09:58:33;25.97;;;14.03;;
6513;SDS011;3290;47.716;9.070;2024-03-08T10:00:58;25.27;;;14.07;;
6513;SDS011;3290;47.716;9.070;2024-03-08T10:03:27;25.03;;;14.30;;
6513;SDS011;3290;47.716;9.070;2024-03-08T10:05:53;25.27;;;13.50;;
6513;SDS011;3290;47.716;9.070;2024-03-08T10:08:21;26.87;;;13.60;;
6513;SDS011;3290;47.716;9.070;2024-03-08T10:10:46;30.43;;;14.33;;
6513;SDS011;3290;47.716;9.070;2024-03-08T10:13:12;35.47;;;15.77;;
6513;SDS011;3290;47.716;9.070;2024-03-08T10:15:41;43.70;;;21.40;;
6513;SDS011;3290;47.716;9.070;2024-03-08T10:18:07;53.90;;;25.20;;
6513;SDS011;3290;47.716;9.070;2024-03-08T10:20:32;82.33;;;32.87;;
6513;SDS011;3290;47.716;9.070;2024-03-08T10:22:59;34.47;;;15.57;;
6513;SDS011;3290;47.716;9.070;2024-03-08T10:25:25;25.47;;;13.03;;
6513;SDS011;3290;47.716;9.070;2024-03-08T10:27:51;24.53;;;13.20;;
6513;SDS011;3290;47.716;9.070;2024-03-08T10:30:16;25.90;;;12.90;;
6513;SDS011;3290;47.716;9.070;2024-03-08T10:32:46;34.47;;;13.80;;
6513;SDS011;3290;47.716;9.070;2024-03-08T10:35:12;31.23;;;15.53;;
6513;SDS011;3290;47.716;9.070;2024-03-08T10:37:44;25.70;;;12.80;;
6513;SDS011;3290;47.716;9.070;2024-03-08T10:40:13;22.23;;;12.30;;
6513;SDS011;3290;47.716;9.070;2024-03-08T10:45:36;25.80;;;13.03;;
6513;SDS011;3290;47.716;9.070;2024-03-08T10:50:47;22.30;;;12.37;;
6513;SDS011;3290;47.716;9.070;2024-03-08T10:53:15;23.80;;;13.10;;
6513;SDS011;3290;47.716;9.070;2024-03-08T10:55:43;22.20;;;12.00;;
6513;SDS011;3290;47.716;9.070;2024-03-08T10:58:09;23.63;;;13.03;;
6513;SDS011;3290;47.716;9.070;2024-03-08T11:00:37;19.83;;;11.57;;
6513;SDS011;3290;47.716;9.070;2024-03-08T11:03:03;24.43;;;13.80;;
6513;SDS011;3290;47.716;9.070;2024-03-08T11:05:40;18.40;;;11.47;;
6513;SDS011;3290;47.716;9.070;2024-03-08T11:10:48;22.70;;;12.77;;
6513;SDS011;3290;47.716;9.070;2024-03-08T11:13:37;31.97;;;12.50;;
6513;SDS011;3290;47.716;9.070;2024-03-08T11:16:11;21.90;;;12.20;;
6513;SDS011;3290;47.716;9.070;2024-03-08T11:19:00;22.60;;;12.37;;
6513;SDS011;3290;47.716;9.070;2024-03-08T11:21:30;29.30;;;13.23;;
6513;SDS011;3290;47.716;9.070;2024-03-08T11:24:02;23.13;;;11.50;;
6513;SDS011;3290;47.716;9.070;2024-03-08T11:26:32;19.97;;;11.17;;
6513;SDS011;3290;47.716;9.070;2024-03-08T11:32:04;20.77;;;11.30;;
6513;SDS011;3290;47.716;9.070;2024-03-08T11:34:35;21.33;;;12.07;;
6513;SDS011;3290;47.716;9.070;2024-03-08T11:37:05;16.87;;;9.97;;
6513;SDS011;3290;47.716;9.070;2024-03-08T11:39:37;17.60;;;10.50;;
6513;SDS011;3290;47.716;9.070;2024-03-08T11:42:04;21.77;;;12.60;;
6513;SDS011;3290;47.716;9.070;2024-03-08T11:44:30;21.07;;;11.70;;
6513;SDS011;3290;47.716;9.070;2024-03-08T11:46:56;18.33;;;10.70;;
6513;SDS011;3290;47.716;9.070;2024-03-08T11:49:22;21.37;;;12.20;;
6513;SDS011;3290;47.716;9.070;2024-03-08T11:51:50;23.23;;;11.70;;
6513;SDS011;3290;47.716;9.070;2024-03-08T11:54:17;21.53;;;11.00;;
6513;SDS011;3290;47.716;9.070;2024-03-08T11:56:43;21.53;;;12.30;;
6513;SDS011;3290;47.716;9.070;2024-03-08T11:59:12;15.87;;;9.50;;
6513;SDS011;3290;47.716;9.070;2024-03-08T12:01:38;19.20;;;11.20;;
6513;SDS011;3290;47.716;9.070;2024-03-08T12:04:04;19.33;;;10.83;;
6513;SDS011;3290;47.716;9.070;2024-03-08T12:06:38;20.80;;;10.90;;
6513;SDS011;3290;47.716;9.070;2024-03-08T12:09:04;17.90;;;10.17;;
6513;SDS011;3290;47.716;9.070;2024-03-08T12:11:34;19.33;;;10.70;;
6513;SDS011;3290;47.716;9.070;2024-03-08T12:14:01;20.87;;;11.90;;
6513;SDS011;3290;47.716;9.070;2024-03-08T12:16:26;18.60;;;11.73;;
6513;SDS011;3290;47.716;9.070;2024-03-08T12:18:52;18.00;;;10.53;;
6513;SDS011;3290;47.716;9.070;2024-03-08T12:21:21;21.43;;;11.60;;
6513;SDS011;3290;47.716;9.070;2024-03-08T12:23:53;20.00;;;11.30;;
6513;SDS011;3290;47.716;9.070;2024-03-08T12:26:36;17.87;;;10.23;;
6513;SDS011;3290;47.716;9.070;2024-03-08T12:29:22;18.17;;;10.23;;
6513;SDS011;3290;47.716;9.070;2024-03-08T12:31:53;19.57;;;10.57;;
6513;SDS011;3290;47.716;9.070;2024-03-08T12:34:26;20.27;;;11.07;;
6513;SDS011;3290;47.716;9.070;2024-03-08T12:36:57;15.43;;;9.00;;
6513;SDS011;3290;47.716;9.070;2024-03-08T12:39:23;17.50;;;9.50;;
6513;SDS011;3290;47.716;9.070;2024-03-08T12:41:52;19.60;;;10.60;;
6513;SDS011;3290;47.716;9.070;2024-03-08T12:44:22;20.47;;;11.53;;
6513;SDS011;3290;47.716;9.070;2024-03-08T12:46:47;18.57;;;10.77;;
6513;SDS011;3290;47.716;9.070;2024-03-08T12:49:13;17.33;;;11.30;;
6513;SDS011;3290;47.716;9.070;2024-03-08T12:51:42;19.10;;;10.83;;
6513;SDS011;3290;47.716;9.070;2024-03-08T12:54:11;20.60;;;11.80;;
6513;SDS011;3290;47.716;9.070;2024-03-08T12:56:37;21.77;;;12.03;;
6513;SDS011;3290;47.716;9.070;2024-03-08T12:59:03;20.30;;;11.80;;
6513;SDS011;3290;47.716;9.070;2024-03-08T13:01:30;19.63;;;11.73;;
6513;SDS011;3290;47.716;9.070;2024-03-08T13:03:59;22.47;;;12.50;;
6513;SDS011;3290;47.716;9.070;2024-03-08T13:06:27;21.00;;;11.83;;
6513;SDS011;3290;47.716;9.070;2024-03-08T13:08:54;25.90;;;13.53;;
6513;SDS011;3290;47.716;9.070;2024-03-08T13:11:20;22.50;;;11.70;;
6513;SDS011;3290;47.716;9.070;2024-03-08T13:13:46;20.53;;;11.90;;
6513;SDS011;3290;47.716;9.070;2024-03-08T13:16:12;20.50;;;11.33;;
6513;SDS011;3290;47.716;9.070;2024-03-08T13:18:40;16.33;;;10.93;;
6513;SDS011;3290;47.716;9.070;2024-03-08T13:21:09;21.33;;;12.40;;
6513;SDS011;3290;47.716;9.070;2024-03-08T13:23:39;19.57;;;11.40;;
6513;SDS011;3290;47.716;9.070;2024-03-08T13:26:06;19.20;;;12.23;;
6513;SDS011;3290;47.716;9.070;2024-03-08T13:28:32;21.77;;;13.40;;
6513;SDS011;3290;47.716;9.070;2024-03-08T13:31:04;23.83;;;13.80;;
6513;SDS011;3290;47.716;9.070;2024-03-08T13:33:31;21.00;;;12.40;;
6513;SDS011;3290;47.716;9.070;2024-03-08T13:36:00;20.80;;;12.10;;
6513;SDS011;3290;47.716;9.070;2024-03-08T13:38:26;19.30;;;12.57;;
6513;SDS011;3290;47.716;9.070;2024-03-08T13:40:52;23.20;;;12.30;;
6513;SDS011;3290;47.716;9.070;2024-03-08T13:43:17;18.57;;;11.70;;
6513;SDS011;3290;47.716;9.070;2024-03-08T13:45:42;19.47;;;11.50;;
6513;SDS011;3290;47.716;9.070;2024-03-08T13:48:08;19.73;;;12.80;;
6513;SDS011;3290;47.716;9.070;2024-03-08T13:50:37;21.83;;;12.60;;
6513;SDS011;3290;47.716;9.070;2024-03-08T13:53:03;19.23;;;12.60;;
6513;SDS011;3290;47.716;9.070;2024-03-08T13:55:29;17.53;;;12.10;;
6513;SDS011;3290;47.716;9.070;2024-03-08T13:57:55;19.13;;;12.57;;
6513;SDS011;3290;47.716;9.070;2024-03-08T14:00:22;18.83;;;10.63;;
6513;SDS011;3290;47.716;9.070;2024-03-08T14:02:49;21.53;;;12.50;;
6513;SDS011;3290;47.716;9.070;2024-03-08T14:05:15;18.90;;;12.10;;
6513;SDS011;3290;47.716;9.070;2024-03-08T14:07:42;19.80;;;12.10;;
6513;SDS011;3290;47.716;9.070;2024-03-08T14:10:11;18.90;;;11.70;;
6513;SDS011;3290;47.716;9.070;2024-03-08T14:12:37;24.00;;;14.10;;
6513;SDS011;3290;47.716;9.070;2024-03-08T14:15:03;23.23;;;13.47;;
6513;SDS011;3290;47.716;9.070;2024-03-08T14:17:31;19.70;;;12.27;;
6513;SDS011;3290;47.716;9.070;2024-03-08T14:19:57;22.90;;;12.97;;
6513;SDS011;3290;47.716;9.070;2024-03-08T14:22:22;22.37;;;13.80;;
6513;SDS011;3290;47.716;9.070;2024-03-08T14:24:48;24.37;;;13.70;;
6513;SDS011;3290;47.716;9.070;2024-03-08T14:27:14;26.13;;;15.40;;
6513;SDS011;3290;47.716;9.070;2024-03-08T14:29:42;20.00;;;12.13;;
6513;SDS011;3290;47.716;9.070;2024-03-08T14:32:08;22.80;;;13.33;;
6513;SDS011;3290;47.716;9.070;2024-03-08T14:34:35;19.73;;;11.63;;
6513;SDS011;3290;47.716;9.070;2024-03-08T14:37:00;23.10;;;12.50;;
6513;SDS011;3290;47.716;9.070;2024-03-08T14:39:33;20.27;;;12.70;;
6513;SDS011;3290;47.716;9.070;2024-03-08T14:41:59;17.70;;;11.27;;
6513;SDS011;3290;47.716;9.070;2024-03-08T14:44:25;19.10;;;11.50;;
6513;SDS011;3290;47.716;9.070;2024-03-08T14:46:57;24.00;;;12.90;;
6513;SDS011;3290;47.716;9.070;2024-03-08T14:49:22;21.13;;;11.13;;
6513;SDS011;3290;47.716;9.070;2024-03-08T14:51:48;18.50;;;11.83;;
6513;SDS011;3290;47.716;9.070;2024-03-08T14:54:14;26.80;;;13.10;;
6513;SDS011;3290;47.716;9.070;2024-03-08T14:56:39;19.13;;;10.77;;